sensor_id;sensor_type;location;lat;lon;timestamp;P1;durP1;ratioP1;P2;durP2;ratioP2
11518;SDS011;5816;48.228;14.116;2023-11-19T06:19:42;23.33;;;21.83;;
11518;SDS011;5816;48.228;14.116;2023-11-19T06:24:44;24.13;;;22.40;;
11518;SDS011;5816;48.228;14.116;2023-11-19T06:29:46;24.20;;;22.60;;
11518;SDS011;5816;48.228;14.116;2023-11-19T06:34:48;27.07;;;25.27;;
11518;SDS011;5816;48.228;14.116;2023-11-19T06:39:50;25.53;;;23.83;;
11518;SDS011;5816;48.228;14.116;2023-11-19T06:44:52;25.43;;;23.67;;
11518;SDS011;5816;48.228;14.116;2023-11-19T06:49:54;26.20;;;24.47;;
11518;SDS011;5816;48.228;14.116;2023-11-19T06:54:56;27.10;;;25.20;;
11518;SDS011;5816;48.228;14.116;2023-11-19T07:00:09;26.43;;;24.73;;
11518;SDS011;5816;48.228;14.116;2023-11-19T07:05:12;27.07;;;25.30;;
11518;SDS011;5816;48.228;14.116;2023-11-19T07:10:14;25.97;;;24.17;;
11518;SDS011;5816;48.228;14.116;2023-11-19T07:15:17;26.10;;;24.33;;
11518;SDS011;5816;48.228;14.116;2023-11-19T07:20:19;25.33;;;23.53;;
11518;SDS011;5816;48.228;14.116;2023-11-19T07:25:21;26.97;;;25.17;;
11518;SDS011;5816;48.228;14.116;2023-11-19T07:30:22;26.53;;;24.73;;
11518;SDS011;5816;48.228;14.116;2023-11-19T07:35:24;26.57;;;24.77;;
11518;SDS011;5816;48.228;14.116;2023-11-19T07:40:26;26.70;;;25.00;;
11518;SDS011;5816;48.228;14.116;2023-11-19T07:45:28;27.77;;;25.87;;
11518;SDS011;5816;48.228;14.116;2023-11-19T07:50:30;25.13;;;23.53;;
11518;SDS011;5816;48.228;14.116;2023-11-19T07:55:33;26.63;;;24.93;;
11518;SDS011;5816;48.228;14.116;2023-11-19T08:00:35;26.07;;;24.40;;
11518;SDS011;5816;48.228;14.116;2023-11-19T08:05:37;26.60;;;24.90;;
11518;SDS011;5816;48.228;14.116;2023-11-19T08:10:39;25.63;;;23.93;;
11518;SDS011;5816;48.228;14.116;2023-11-19T08:15:41;25.70;;;24.03;;
11518;SDS011;5816;48.228;14.116;2023-11-19T08:20:44;26.67;;;24.97;;
11518;SDS011;5816;48.228;14.116;2023-11-19T08:25:46;26.53;;;24.80;;
11518;SDS011;5816;48.228;14.116;2023-11-19T08:30:48;27.17;;;25.37;;
11518;SDS011;5816;48.228;14.116;2023-11-19T08:35:50;26.00;;;24.20;;
11518;SDS011;5816;48.228;14.116;2023-11-19T08:40:52;27.93;;;25.70;;
11518;SDS011;5816;48.228;14.116;2023-11-19T08:45:53;28.70;;;26.37;;
11518;SDS011;5816;48.228;14.116;2023-11-19T08:50:55;26.10;;;24.10;;
11518;SDS011;5816;48.228;14.116;2023-11-19T08:55:57;26.27;;;24.17;;
11518;SDS011;5816;48.228;14.116;2023-11-19T09:00:59;26.10;;;24.27;;
11518;SDS011;5816;48.228;14.116;2023-11-19T09:06:01;25.10;;;23.37;;
11518;SDS011;5816;48.228;14.116;2023-11-19T09:11:06;27.00;;;24.80;;
11518;SDS011;5816;48.228;14.116;2023-11-19T09:16:09;26.77;;;24.57;;
11518;SDS011;5816;48.228;14.116;2023-11-19T09:21:13;24.70;;;23.00;;
11518;SDS011;5816;48.228;14.116;2023-11-19T09:26:15;24.07;;;22.47;;
11518;SDS011;5816;48.228;14.116;2023-11-19T09:31:17;24.63;;;23.03;;
11518;SDS011;5816;48.228;14.116;2023-11-19T09:36:20;23.63;;;22.03;;
11518;SDS011;5816;48.228;14.116;2023-11-19T09:41:21;23.57;;;22.17;;
11518;SDS011;5816;48.228;14.116;2023-11-19T09:46:24;22.63;;;21.23;;
11518;SDS011;5816;48.228;14.116;2023-11-19T09:51:28;23.17;;;21.57;;
11518;SDS011;5816;48.228;14.116;2023-11-19T09:56:29;24.93;;;23.13;;
11518;SDS011;5816;48.228;14.116;2023-11-19T10:01:32;25.63;;;23.73;;
11518;SDS011;5816;48.228;14.116;2023-11-19T10:06:36;25.53;;;23.83;;
11518;SDS011;5816;48.228;14.116;2023-11-19T10:11:38;24.07;;;22.47;;
11518;SDS011;5816;48.228;14.116;2023-11-19T10:16:40;24.70;;;23.00;;
11518;SDS011;5816;48.228;14.116;2023-11-19T10:21:42;22.97;;;21.57;;
11518;SDS011;5816;48.228;14.116;2023-11-19T10:26:45;22.73;;;21.27;;
11518;SDS011;5816;48.228;14.116;2023-11-19T10:31:55;22.57;;;21.17;;
11518;SDS011;5816;48.228;14.116;2023-11-19T10:37:29;22.63;;;21.23;;
11518;SDS011;5816;48.228;14.116;2023-11-19T10:42:37;23.23;;;21.67;;
11518;SDS011;5816;48.228;14.116;2023-11-19T10:47:38;23.03;;;21.53;;
11518;SDS011;5816;48.228;14.116;2023-11-19T10:52:44;22.57;;;21.17;;
11518;SDS011;5816;48.228;14.116;2023-11-19T10:57:49;23.23;;;21.70;;
11518;SDS011;5816;48.228;14.116;2023-11-19T11:02:53;22.80;;;21.33;;
11518;SDS011;5816;48.228;14.116;2023-11-19T11:07:58;24.07;;;22.47;;
11518;SDS011;5816;48.228;14.116;2023-11-19T11:13:03;22.93;;;21.43;;
11518;SDS011;5816;48.228;14.116;2023-11-19T11:18:05;22.83;;;21.43;;
11518;SDS011;5816;48.228;14.116;2023-11-19T11:34:08;22.40;;;21.10;;
11518;SDS011;5816;48.228;14.116;2023-11-19T11:39:16;23.20;;;21.73;;
11518;SDS011;5816;48.228;14.116;2023-11-19T11:44:19;23.30;;;21.90;;
11518;SDS011;5816;48.228;14.116;2023-11-19T11:50:06;22.83;;;21.43;;
11518;SDS011;5816;48.228;14.116;2023-11-19T11:55:13;23.83;;;22.33;;
11518;SDS011;5816;48.228;14.116;2023-11-19T12:01:01;22.60;;;21.30;;
11518;SDS011;5816;48.228;14.116;2023-11-19T12:05:42;22.90;;;21.50;;
11518;SDS011;5816;48.228;14.116;2023-11-19T12:10:52;23.40;;;21.90;;
11518;SDS011;5816;48.228;14.116;2023-11-19T12:21:00;25.03;;;23.33;;
11518;SDS011;5816;48.228;14.116;2023-11-19T12:26:02;23.60;;;21.97;;
11518;SDS011;5816;48.228;14.116;2023-11-19T12:31:08;24.57;;;22.97;;
11518;SDS011;5816;48.228;14.116;2023-11-19T12:36:14;25.83;;;24.13;;
11518;SDS011;5816;48.228;14.116;2023-11-19T12:41:17;26.97;;;25.07;;
11518;SDS011;5816;48.228;14.116;2023-11-19T12:46:22;27.80;;;26.00;;
11518;SDS011;5816;48.228;14.116;2023-11-19T12:51:30;25.50;;;23.90;;
11518;SDS011;5816;48.228;14.116;2023-11-19T12:56:33;25.17;;;23.57;;
11518;SDS011;5816;48.228;14.116;2023-11-19T13:01:36;24.63;;;23.03;;
11518;SDS011;5816;48.228;14.116;2023-11-19T13:06:44;24.60;;;23.00;;
11518;SDS011;5816;48.228;14.116;2023-11-19T13:12:14;24.30;;;22.70;;
11518;SDS011;5816;48.228;14.116;2023-11-19T13:17:18;23.83;;;22.30;;
11518;SDS011;5816;48.228;14.116;2023-11-19T13:22:20;23.87;;;22.27;;
11518;SDS011;5816;48.228;14.116;2023-11-19T13:27:22;26.30;;;24.60;;
11518;SDS011;5816;48.228;14.116;2023-11-19T13:32:24;24.77;;;23.17;;
11518;SDS011;5816;48.228;14.116;2023-11-19T13:37:27;27.43;;;25.57;;
11518;SDS011;5816;48.228;14.116;2023-11-19T13:42:30;24.23;;;22.63;;
11518;SDS011;5816;48.228;14.116;2023-11-19T13:47:31;25.10;;;23.20;;
11518;SDS011;5816;48.228;14.116;2023-11-19T13:52:33;25.63;;;23.80;;
11518;SDS011;5816;48.228;14.116;2023-11-19T13:57:35;23.80;;;22.20;;
11518;SDS011;5816;48.228;14.116;2023-11-19T14:02:38;23.77;;;22.27;;
11518;SDS011;5816;48.228;14.116;2023-11-19T14:07:41;24.37;;;22.70;;
11518;SDS011;5816;48.228;14.116;2023-11-19T14:12:44;24.30;;;22.70;;
11518;SDS011;5816;48.228;14.116;2023-11-19T14:17:46;25.17;;;23.47;;
11518;SDS011;5816;48.228;14.116;2023-11-19T14:22:48;25.17;;;23.47;;
11518;SDS011;5816;48.228;14.116;2023-11-19T14:27:50;26.47;;;24.67;;
11518;SDS011;5816;48.228;14.116;2023-11-19T14:32:52;26.53;;;24.60;;
11518;SDS011;5816;48.228;14.116;2023-11-19T14:37:55;26.90;;;25.00;;
11518;SDS011;5816;48.228;14.116;2023-11-19T14:42:57;26.83;;;25.03;;
11518;SDS011;5816;48.228;14.116;2023-11-19T14:48:01;27.17;;;25.17;;
11518;SDS011;5816;48.228;14.116;2023-11-19T14:53:06;28.33;;;26.23;;
11518;SDS011;5816;48.228;14.116;2023-11-19T14:58:10;29.73;;;27.47;;
11518;SDS011;5816;48.228;14.116;2023-11-19T15:03:16;28.10;;;26.10;;
11518;SDS011;5816;48.228;14.116;2023-11-19T15:08:20;27.10;;;25.30;;
11518;SDS011;5816;48.228;14.116;2023-11-19T15:13:22;28.60;;;26.43;;
11518;SDS011;5816;48.228;14.116;2023-11-19T15:18:24;30.43;;;28.13;;
11518;SDS011;5816;48.228;14.116;2023-11-19T15:23:26;32.07;;;29.50;;
11518;SDS011;5816;48.228;14.116;2023-11-19T15:28:28;36.07;;;32.77;;
11518;SDS011;5816;48.228;14.116;2023-11-19T15:33:30;35.47;;;32.23;;
11518;SDS011;5816;48.228;14.116;2023-11-19T15:38:33;34.60;;;31.60;;
11518;SDS011;5816;48.228;14.116;2023-11-19T15:43:53;34.93;;;31.83;;
11518;SDS011;5816;48.228;14.116;2023-11-19T15:48:56;34.00;;;30.93;;
11518;SDS011;5816;48.228;14.116;2023-11-19T15:53:57;34.83;;;31.80;;
11518;SDS011;5816;48.228;14.116;2023-11-19T15:58:59;37.00;;;33.70;;
11518;SDS011;5816;48.228;14.116;2023-11-19T16:04:01;38.40;;;34.47;;
11518;SDS011;5816;48.228;14.116;2023-11-19T16:09:03;36.73;;;33.33;;
11518;SDS011;5816;48.228;14.116;2023-11-19T16:14:05;35.17;;;32.07;;
11518;SDS011;5816;48.228;14.116;2023-11-19T16:19:07;36.73;;;33.50;;
11518;SDS011;5816;48.228;14.116;2023-11-19T16:24:08;38.15;;;34.75;;
11518;SDS011;5816;48.228;14.116;2023-11-19T16:29:10;32.87;;;29.73;;
11518;SDS011;5816;48.228;14.116;2023-11-19T16:34:12;31.77;;;29.17;;
11518;SDS011;5816;48.228;14.116;2023-11-19T16:39:14;30.13;;;27.63;;
11518;SDS011;5816;48.228;14.116;2023-11-19T16:44:17;29.60;;;27.30;;
11518;SDS011;5816;48.228;14.116;2023-11-19T16:49:18;28.80;;;26.60;;
11518;SDS011;5816;48.228;14.116;2023-11-19T16:54:20;29.27;;;26.97;;
11518;SDS011;5816;48.228;14.116;2023-11-19T16:59:23;26.97;;;24.97;;
11518;SDS011;5816;48.228;14.116;2023-11-19T17:04:24;29.13;;;26.83;;
11518;SDS011;5816;48.228;14.116;2023-11-19T17:09:28;31.30;;;28.47;;
11518;SDS011;5816;48.228;14.116;2023-11-19T17:14:30;31.90;;;29.10;;
11518;SDS011;5816;48.228;14.116;2023-11-19T17:19:34;30.10;;;27.70;;
11518;SDS011;5816;48.228;14.116;2023-11-19T17:24:36;30.27;;;27.90;;
11518;SDS011;5816;48.228;14.116;2023-11-19T17:29:38;28.53;;;26.30;;
11518;SDS011;5816;48.228;14.116;2023-11-19T17:34:40;28.03;;;25.83;;
11518;SDS011;5816;48.228;14.116;2023-11-19T17:39:41;27.33;;;25.13;;
11518;SDS011;5816;48.228;14.116;2023-11-19T17:44:43;28.10;;;26.00;;
11518;SDS011;5816;48.228;14.116;2023-11-19T17:49:45;28.77;;;26.37;;
11518;SDS011;5816;48.228;14.116;2023-11-19T17:54:46;30.00;;;27.70;;
11518;SDS011;5816;48.228;14.116;2023-11-19T17:59:48;31.67;;;29.17;;
11518;SDS011;5816;48.228;14.116;2023-11-19T18:04:51;33.40;;;30.50;;
11518;SDS011;5816;48.228;14.116;2023-11-19T18:09:52;33.37;;;30.63;;
11518;SDS011;5816;48.228;14.116;2023-11-19T18:14:54;37.90;;;34.30;;
11518;SDS011;5816;48.228;14.116;2023-11-19T18:19:56;34.27;;;31.07;;
11518;SDS011;5816;48.228;14.116;2023-11-19T18:24:58;37.60;;;34.30;;
11518;SDS011;5816;48.228;14.116;2023-11-19T18:30:01;36.95;;;33.75;;
11518;SDS011;5816;48.228;14.116;2023-11-19T18:35:03;31.33;;;28.77;;
11518;SDS011;5816;48.228;14.116;2023-11-19T18:40:07;32.13;;;29.47;;
11518;SDS011;5816;48.228;14.116;2023-11-19T18:45:10;31.50;;;28.90;;
11518;SDS011;5816;48.228;14.116;2023-11-19T18:50:12;32.00;;;29.40;;
11518;SDS011;5816;48.228;14.116;2023-11-19T18:55:13;34.80;;;31.60;;
11518;SDS011;5816;48.228;14.116;2023-11-19T19:00:15;34.07;;;30.77;;
11518;SDS011;5816;48.228;14.116;2023-11-19T19:05:18;33.83;;;30.60;;
11518;SDS011;5816;48.228;14.116;2023-11-19T19:10:20;35.30;;;31.83;;
11518;SDS011;5816;48.228;14.116;2023-11-19T19:15:21;36.87;;;33.10;;
11518;SDS011;5816;48.228;14.116;2023-11-19T19:20:25;35.40;;;32.00;;
11518;SDS011;5816;48.228;14.116;2023-11-19T19:25:27;36.97;;;33.27;;
11518;SDS011;5816;48.228;14.116;2023-11-19T19:30:29;34.27;;;30.93;;
11518;SDS011;5816;48.228;14.116;2023-11-19T19:35:31;33.70;;;30.70;;
11518;SDS011;5816;48.228;14.116;2023-11-19T19:40:33;33.03;;;30.17;;
11518;SDS011;5816;48.228;14.116;2023-11-19T19:45:35;35.07;;;31.77;;
11518;SDS011;5816;48.228;14.116;2023-11-19T19:50:37;35.80;;;32.57;;
11518;SDS011;5816;48.228;14.116;2023-11-19T19:55:38;32.93;;;30.13;;
11518;SDS011;5816;48.228;14.116;2023-11-19T20:00:40;34.60;;;31.27;;
11518;SDS011;5816;48.228;14.116;2023-11-19T20:05:42;33.87;;;30.53;;
11518;SDS011;5816;48.228;14.116;2023-11-19T20:10:45;32.83;;;29.63;;
11518;SDS011;5816;48.228;14.116;2023-11-19T20:15:54;31.47;;;28.87;;
11518;SDS011;5816;48.228;14.116;2023-11-19T20:20:55;31.10;;;28.37;;
11518;SDS011;5816;48.228;14.116;2023-11-19T20:25:59;33.83;;;30.57;;
11518;SDS011;5816;48.228;14.116;2023-11-19T20:31:02;31.77;;;28.87;;
11518;SDS011;5816;48.228;14.116;2023-11-19T20:36:04;32.17;;;29.43;;
11518;SDS011;5816;48.228;14.116;2023-11-19T20:41:09;31.80;;;28.87;;
11518;SDS011;5816;48.228;14.116;2023-11-19T20:46:12;30.37;;;27.80;;
11518;SDS011;5816;48.228;14.116;2023-11-19T20:51:18;30.53;;;27.87;;
11518;SDS011;5816;48.228;14.116;2023-11-19T20:56:28;29.80;;;27.47;;
11518;SDS011;5816;48.228;14.116;2023-11-19T21:01:30;28.20;;;26.10;;
11518;SDS011;5816;48.228;14.116;2023-11-19T21:06:32;27.90;;;25.80;;
